createdAt,value
2018-11-02T00:04:14.010Z,28.20
2018-11-02T00:06:47.887Z,28.20
2018-11-02T00:09:22.679Z,28.30
2018-11-02T00:11:56.684Z,28.30
2018-11-02T00:14:30.416Z,28.40
2018-11-02T00:17:06.824Z,28.40
2018-11-02T00:19:41.345Z,28.40
2018-11-02T00:22:15.618Z,28.50
2018-11-02T00:24:50.495Z,28.50
2018-11-02T00:27:24.120Z,28.60
2018-11-02T00:30:00.566Z,28.60
2018-11-02T00:32:35.141Z,28.70
2018-11-02T00:35:12.006Z,28.80
2018-11-02T00:42:44.667Z,28.90
2018-11-02T00:45:19.124Z,28.90
2018-11-02T00:47:56.101Z,28.90
2018-11-02T00:50:30.381Z,29.00
2018-11-02T00:53:05.192Z,29.00
2018-11-02T00:55:39.579Z,29.00
2018-11-02T00:58:14.437Z,29.10
2018-11-02T01:00:48.584Z,29.10
2018-11-02T01:03:22.762Z,29.20
2018-11-02T01:05:57.316Z,29.20
2018-11-02T01:08:31.584Z,29.30
2018-11-02T01:11:07.250Z,29.30
2018-11-02T01:13:42.502Z,29.40
2018-11-02T01:16:17.152Z,29.50
2018-11-02T01:18:50.919Z,29.50
2018-11-02T01:21:26.100Z,29.60
2018-11-02T01:24:00.378Z,29.70
2018-11-02T01:26:35.891Z,29.70
2018-11-02T01:29:10.787Z,29.80
2018-11-02T01:31:45.708Z,29.90
2018-11-02T01:34:19.587Z,30.00
2018-11-02T01:36:53.925Z,30.00
2018-11-02T01:39:27.873Z,30.10
2018-11-02T01:42:02.441Z,30.20
2018-11-02T01:44:36.497Z,30.20
2018-11-02T01:47:10.744Z,30.30
2018-11-02T01:49:44.867Z,30.40
2018-11-02T01:52:20.079Z,30.40
2018-11-02T01:54:53.895Z,30.50
2018-11-02T01:57:29.768Z,30.60
2018-11-02T02:00:04.086Z,30.70
2018-11-02T02:02:37.961Z,30.70
2018-11-02T02:05:12.440Z,30.80
2018-11-02T02:07:46.893Z,30.90
2018-11-02T02:10:20.796Z,31.00
2018-11-02T02:12:55.053Z,31.00
2018-11-02T02:15:29.514Z,31.10
2018-11-02T02:18:04.060Z,31.20
2018-11-02T02:20:39.238Z,31.20
2018-11-02T02:23:13.711Z,31.30
2018-11-02T02:25:48.951Z,31.40
2018-11-02T02:28:24.605Z,31.40
2018-11-02T02:30:58.704Z,31.50
2018-11-02T02:33:32.724Z,31.60
2018-11-02T02:36:07.070Z,31.70
2018-11-02T02:38:41.059Z,31.70
2018-11-02T02:41:15.707Z,31.80
2018-11-02T02:43:49.753Z,31.90
2018-11-02T02:46:23.506Z,32.00
2018-11-02T02:48:57.487Z,32.00
2018-11-02T02:51:31.667Z,32.10
2018-11-02T02:54:05.739Z,32.20
2018-11-02T02:56:39.990Z,32.20
2018-11-02T02:59:13.755Z,32.20
2018-11-02T03:01:48.510Z,32.30
2018-11-02T03:04:22.791Z,32.40
2018-11-02T03:06:56.270Z,32.50
2018-11-02T03:09:30.722Z,32.50
2018-11-02T03:12:04.373Z,32.60
2018-11-02T03:14:38.380Z,32.70
2018-11-02T03:17:12.279Z,32.70
2018-11-02T03:19:48.437Z,32.70
2018-11-02T03:22:23.353Z,32.90
2018-11-02T03:24:57.980Z,32.90
2018-11-02T03:27:31.885Z,33.00
2018-11-02T03:30:06.550Z,33.00
2018-11-02T03:32:40.350Z,33.10
2018-11-02T03:35:14.111Z,33.20
2018-11-02T03:37:48.055Z,33.30
2018-11-02T03:40:22.254Z,33.40
2018-11-02T03:42:57.126Z,33.40
2018-11-02T03:45:31.470Z,33.50
2018-11-02T03:48:05.573Z,33.60
2018-11-02T03:50:40.017Z,33.60
2018-11-02T03:53:14.044Z,33.70
2018-11-02T03:55:48.026Z,33.70
2018-11-02T03:58:22.693Z,33.80
2018-11-02T04:00:56.902Z,33.90
2018-11-02T04:03:32.170Z,33.90
2018-11-02T04:06:06.082Z,34.00
2018-11-02T04:08:40.311Z,34.00
2018-11-02T04:11:14.189Z,34.10
2018-11-02T04:13:48.592Z,34.10
2018-11-02T04:16:22.581Z,34.20
2018-11-02T04:18:56.557Z,34.20
2018-11-02T04:21:30.425Z,34.20
2018-11-02T04:24:04.494Z,34.30
2018-11-02T04:26:38.156Z,34.40
2018-11-02T04:29:13.609Z,34.40
2018-11-02T04:31:48.440Z,34.40
2018-11-02T04:34:22.382Z,34.50
2018-11-02T04:36:56.409Z,34.50
2018-11-02T04:39:30.984Z,34.60
2018-11-02T04:42:04.705Z,34.60
2018-11-02T04:44:38.429Z,34.60
2018-11-02T04:47:12.402Z,34.60
2018-11-02T04:49:46.895Z,34.60
2018-11-02T04:52:21.705Z,34.60
2018-11-02T04:54:56.553Z,34.60
2018-11-02T04:57:31.499Z,34.60
2018-11-02T05:00:05.629Z,34.60
2018-11-02T05:02:42.852Z,34.60
2018-11-02T05:05:16.722Z,34.60
2018-11-02T05:07:50.575Z,34.50
2018-11-02T05:10:25.499Z,34.60
2018-11-02T05:12:59.652Z,34.60
2018-11-02T05:15:33.421Z,34.60
2018-11-02T05:18:07.901Z,34.60
2018-11-02T05:20:42.135Z,34.60
2018-11-02T05:23:15.830Z,34.60
2018-11-02T05:25:49.743Z,34.60
2018-11-02T05:28:23.804Z,34.60
2018-11-02T05:30:58.123Z,34.70
2018-11-02T05:33:32.811Z,34.70
2018-11-02T05:36:06.781Z,34.70
2018-11-02T05:38:40.450Z,34.70
2018-11-02T05:41:14.742Z,34.70
2018-11-02T05:43:49.071Z,34.70
2018-11-02T05:46:22.844Z,34.70
2018-11-02T05:48:56.720Z,34.70
2018-11-02T05:51:30.669Z,34.80
2018-11-02T05:54:04.925Z,34.80
2018-11-02T05:56:39.401Z,34.90
2018-11-02T05:59:13.520Z,34.90
2018-11-02T06:01:47.706Z,34.90
2018-11-02T06:04:21.597Z,34.90
2018-11-02T06:06:55.372Z,35.00
2018-11-02T06:09:29.678Z,35.00
2018-11-02T06:12:03.915Z,35.00
2018-11-02T06:14:38.040Z,35.00
2018-11-02T06:17:11.723Z,35.00
2018-11-02T06:19:45.948Z,34.90
2018-11-02T06:22:20.980Z,34.90
2018-11-02T06:24:56.005Z,34.90
2018-11-02T06:27:29.861Z,34.80
2018-11-02T06:30:03.970Z,34.80
2018-11-02T06:32:39.392Z,34.80
2018-11-02T06:35:14.693Z,34.80
2018-11-02T06:37:48.754Z,34.80
2018-11-02T06:40:22.692Z,34.80
2018-11-02T06:42:56.931Z,34.80
2018-11-02T06:45:30.715Z,34.80
2018-11-02T06:48:04.879Z,34.70
2018-11-02T06:50:38.570Z,34.70
2018-11-02T06:53:12.512Z,34.70
2018-11-02T06:55:46.414Z,34.70
2018-11-02T06:58:20.751Z,34.70
2018-11-02T07:00:54.802Z,34.60
2018-11-02T07:03:29.484Z,34.70
2018-11-02T07:06:03.433Z,34.60
2018-11-02T07:08:37.587Z,34.60
2018-11-02T07:11:11.442Z,34.60
2018-11-02T07:13:45.664Z,34.60
2018-11-02T07:16:19.906Z,34.60
2018-11-02T07:18:54.978Z,34.60
2018-11-02T07:21:28.560Z,34.60
2018-11-02T07:24:02.288Z,34.60
2018-11-02T07:26:36.569Z,34.60
2018-11-02T07:29:11.469Z,34.60
2018-11-02T07:31:45.244Z,34.60
2018-11-02T07:34:18.858Z,34.60
2018-11-02T07:36:53.565Z,34.60
2018-11-02T07:39:27.526Z,34.60
2018-11-02T07:42:01.317Z,34.60
2018-11-02T07:44:35.082Z,34.60
2018-11-02T07:47:09.176Z,34.60
2018-11-02T07:49:43.161Z,34.60
2018-11-02T07:52:16.736Z,34.60
2018-11-02T07:54:50.642Z,34.60
2018-11-02T07:57:24.503Z,34.60
2018-11-02T07:59:58.369Z,34.60
2018-11-02T08:02:33.233Z,34.50
2018-11-02T08:10:04.037Z,34.60
2018-11-02T08:12:39.536Z,34.50
2018-11-02T08:15:15.336Z,34.50
2018-11-02T08:17:49.478Z,34.50
2018-11-02T08:20:23.303Z,34.50
2018-11-02T08:22:57.816Z,34.50
2018-11-02T08:25:34.351Z,34.50
2018-11-02T08:28:08.418Z,34.50
2018-11-02T08:30:42.332Z,34.50
2018-11-02T08:33:17.578Z,34.50
2018-11-02T08:35:52.385Z,34.60
2018-11-02T08:38:27.924Z,34.60
2018-11-02T08:41:02.691Z,34.60
2018-11-02T08:43:36.611Z,34.60
2018-11-02T08:46:10.589Z,34.60
2018-11-02T08:48:44.405Z,34.60
2018-11-02T08:51:18.099Z,34.60
2018-11-02T08:53:52.540Z,34.60
2018-11-02T08:56:26.730Z,34.60
2018-11-02T08:59:00.896Z,34.60
2018-11-02T09:01:35.390Z,34.50
2018-11-02T09:04:09.968Z,34.50
2018-11-02T09:06:44.200Z,34.50
2018-11-02T09:09:18.969Z,34.50
2018-11-02T09:11:52.631Z,34.50
2018-11-02T09:14:26.722Z,34.50
2018-11-02T09:17:00.919Z,34.40
2018-11-02T09:19:35.157Z,34.40
2018-11-02T09:22:09.367Z,34.40
2018-11-02T09:24:43.082Z,34.40
2018-11-02T09:27:17.206Z,34.30
2018-11-02T09:29:52.241Z,34.30
2018-11-02T09:32:26.306Z,34.30
2018-11-02T09:35:00.342Z,34.30
2018-11-02T09:37:34.100Z,34.30
2018-11-02T09:40:11.159Z,34.30
2018-11-02T09:42:45.895Z,34.30
2018-11-02T09:45:19.834Z,34.20
2018-11-02T09:47:53.609Z,34.20
2018-11-02T09:50:27.655Z,34.20
2018-11-02T09:53:01.403Z,34.20
2018-11-02T09:55:38.896Z,34.10
2018-11-02T09:58:12.568Z,34.10
2018-11-02T10:00:47.667Z,34.10
2018-11-02T10:03:21.970Z,34.10
2018-11-02T10:05:56.064Z,34.10
2018-11-02T10:11:07.956Z,34.00
2018-11-02T10:13:42.042Z,34.10
2018-11-02T10:16:16.262Z,34.00
2018-11-02T10:18:50.119Z,34.00
2018-11-02T10:21:24.111Z,34.00
2018-11-02T10:23:58.247Z,33.90
2018-11-02T10:26:32.067Z,33.90
2018-11-02T10:29:06.356Z,33.90
2018-11-02T10:31:41.782Z,33.90
2018-11-02T10:34:17.021Z,33.80
2018-11-02T10:36:51.644Z,33.80
2018-11-02T10:39:25.867Z,33.70
2018-11-02T10:42:02.383Z,33.70
2018-11-02T10:44:38.754Z,33.60
2018-11-02T10:47:14.520Z,33.60
2018-11-02T10:49:48.532Z,33.60
2018-11-02T10:52:23.934Z,33.60
2018-11-02T10:54:57.780Z,33.60
2018-11-02T10:57:32.736Z,33.50
2018-11-02T11:00:10.193Z,33.50
2018-11-02T11:02:44.102Z,33.40
2018-11-02T11:05:21.123Z,33.40
2018-11-02T11:07:57.362Z,33.40
2018-11-02T11:10:33.070Z,33.40
2018-11-02T11:13:08.332Z,33.40
2018-11-02T11:15:42.470Z,33.40
2018-11-02T11:18:16.155Z,33.40
2018-11-02T11:20:50.292Z,33.40
2018-11-02T11:23:24.783Z,33.40
2018-11-02T11:25:58.716Z,33.30
2018-11-02T11:28:32.943Z,33.20
2018-11-02T11:31:07.045Z,33.20
2018-11-02T11:33:41.209Z,33.20
2018-11-02T11:36:15.320Z,33.20
2018-11-02T11:38:49.365Z,33.20
2018-11-02T11:41:23.371Z,33.20
2018-11-02T11:43:58.603Z,33.10
2018-11-02T11:46:35.164Z,33.20
2018-11-02T11:49:11.412Z,33.10
2018-11-02T11:51:47.824Z,33.20
2018-11-02T11:54:25.540Z,33.20
2018-11-02T11:57:00.826Z,33.20
2018-11-02T11:59:35.622Z,33.10
2018-11-02T12:02:10.044Z,33.20
2018-11-02T12:04:50.506Z,33.10
2018-11-02T12:07:28.517Z,33.10
2018-11-02T12:10:02.539Z,33.10
2018-11-02T12:12:38.931Z,33.10
2018-11-02T12:15:16.038Z,33.10
2018-11-02T12:17:50.209Z,33.10
2018-11-02T12:20:25.507Z,33.00
2018-11-02T12:23:00.747Z,33.00
2018-11-02T12:25:35.161Z,33.00
2018-11-02T12:28:11.079Z,33.00
2018-11-02T12:30:44.973Z,33.00
2018-11-02T12:33:18.901Z,33.00
2018-11-02T12:35:52.990Z,33.00
2018-11-02T12:38:27.335Z,33.00
2018-11-02T12:41:01.809Z,33.00
2018-11-02T12:43:37.640Z,33.00
2018-11-02T12:46:11.673Z,33.00
2018-11-02T12:48:45.873Z,33.00
2018-11-02T12:51:22.181Z,32.90
2018-11-02T12:53:57.068Z,32.90
2018-11-02T12:56:30.744Z,32.90
2018-11-02T12:59:07.878Z,32.90
2018-11-02T13:01:43.724Z,32.90
2018-11-02T13:04:18.431Z,32.80
2018-11-02T13:06:52.242Z,32.80
2018-11-02T13:09:26.438Z,32.80
2018-11-02T13:12:00.450Z,32.80
2018-11-02T13:14:34.903Z,32.80
2018-11-02T13:17:09.393Z,32.80
2018-11-02T13:19:44.455Z,32.70
2018-11-02T13:22:19.140Z,32.70
2018-11-02T13:24:53.012Z,32.70
2018-11-02T13:27:27.180Z,32.60
2018-11-02T13:30:01.018Z,32.60
2018-11-02T13:32:35.221Z,32.60
2018-11-02T13:35:09.558Z,32.60
2018-11-02T13:42:46.338Z,32.50
2018-11-02T13:45:21.929Z,32.30
2018-11-02T13:47:56.349Z,32.30
2018-11-02T13:50:30.765Z,32.20
2018-11-02T13:53:04.967Z,32.20
2018-11-02T13:55:38.624Z,32.20
2018-11-02T13:58:12.518Z,32.20
2018-11-02T14:00:46.610Z,32.20
2018-11-02T14:03:21.348Z,32.10
2018-11-02T14:05:55.797Z,32.10
2018-11-02T14:08:29.925Z,32.10
2018-11-02T14:11:03.967Z,32.10
2018-11-02T14:13:37.741Z,32.10
2018-11-02T14:16:11.912Z,32.10
2018-11-02T14:18:45.749Z,32.00
2018-11-02T14:21:20.737Z,32.00
2018-11-02T14:28:54.072Z,32.00
2018-11-02T14:31:27.955Z,31.80
2018-11-02T14:34:01.510Z,31.80
2018-11-02T14:36:35.643Z,31.80
2018-11-02T14:39:12.612Z,31.80
2018-11-02T14:41:47.019Z,31.80
2018-11-02T14:44:24.883Z,31.80
2018-11-02T14:46:59.202Z,31.70
2018-11-02T14:49:33.269Z,31.70
2018-11-02T14:52:07.600Z,31.70
2018-11-02T14:54:41.788Z,31.70
2018-11-02T14:57:15.732Z,31.70
2018-11-02T14:59:49.692Z,31.70
2018-11-02T15:02:23.494Z,31.70
2018-11-02T15:04:58.719Z,31.70
2018-11-02T15:07:32.613Z,31.70
2018-11-02T15:10:06.655Z,31.70
2018-11-02T15:12:41.123Z,31.70
2018-11-02T15:15:14.826Z,31.70
2018-11-02T15:17:49.249Z,31.70
2018-11-02T15:20:23.131Z,31.70
2018-11-02T15:22:57.261Z,31.70
2018-11-02T15:25:31.135Z,31.70
2018-11-02T15:28:05.812Z,31.70
2018-11-02T15:30:40.163Z,31.70
2018-11-02T15:33:14.110Z,31.60
2018-11-02T15:35:48.275Z,31.60
2018-11-02T15:38:22.281Z,31.60
2018-11-02T15:40:56.101Z,31.60
2018-11-02T15:43:30.062Z,31.60
2018-11-02T15:46:04.879Z,31.60
2018-11-02T15:48:38.970Z,31.50
2018-11-02T15:51:13.662Z,31.50
2018-11-02T15:53:49.106Z,31.50
2018-11-02T15:56:22.833Z,31.50
2018-11-02T15:58:58.667Z,31.50
2018-11-02T16:01:32.070Z,31.40
2018-11-02T16:04:06.125Z,31.50
2018-11-02T16:06:40.960Z,31.40
2018-11-02T16:09:17.219Z,31.40
2018-11-02T16:11:52.138Z,31.40
2018-11-02T16:14:27.067Z,31.40
2018-11-02T16:17:00.758Z,31.30
2018-11-02T16:19:36.846Z,31.30
2018-11-02T16:22:11.759Z,31.30
2018-11-02T16:24:45.885Z,31.20
2018-11-02T16:27:23.400Z,31.20
2018-11-02T16:29:57.647Z,31.20
2018-11-02T16:32:31.401Z,31.10
2018-11-02T16:35:06.486Z,31.10
2018-11-02T16:37:40.297Z,31.10
2018-11-02T16:40:16.810Z,31.10
2018-11-02T16:42:51.312Z,31.00
2018-11-02T16:45:25.230Z,31.00
2018-11-02T16:47:59.539Z,31.00
2018-11-02T16:50:34.649Z,31.00
2018-11-02T16:53:08.806Z,31.00
2018-11-02T16:55:42.663Z,31.00
2018-11-02T16:58:16.474Z,31.00
2018-11-02T17:00:50.428Z,31.00
2018-11-02T17:03:25.025Z,31.00
2018-11-02T17:05:59.240Z,30.90
2018-11-02T17:08:38.473Z,30.90
2018-11-02T17:11:13.076Z,30.90
2018-11-02T17:13:46.779Z,30.90
2018-11-02T17:16:21.533Z,30.90
2018-11-02T17:18:55.745Z,30.80
2018-11-02T17:21:30.029Z,30.80
2018-11-02T17:24:04.218Z,30.80
2018-11-02T17:26:38.993Z,30.80
2018-11-02T17:29:13.854Z,30.80
2018-11-02T17:31:47.798Z,30.80
2018-11-02T17:34:21.876Z,30.70
2018-11-02T17:36:55.952Z,30.70
2018-11-02T17:39:32.763Z,30.70
2018-11-02T17:42:07.649Z,30.70
2018-11-02T17:44:42.744Z,30.60
2018-11-02T17:47:17.129Z,30.70
2018-11-02T17:49:50.788Z,30.70
2018-11-02T17:52:24.806Z,30.70
2018-11-02T17:54:59.027Z,30.60
2018-11-02T17:57:33.764Z,30.60
2018-11-02T18:00:11.211Z,30.60
2018-11-02T18:02:45.394Z,30.60
2018-11-02T18:05:19.582Z,30.60
2018-11-02T18:07:53.302Z,30.60
2018-11-02T18:10:28.568Z,30.60
2018-11-02T18:13:02.676Z,30.60
2018-11-02T18:15:36.750Z,30.60
2018-11-02T18:18:10.727Z,30.60
2018-11-02T18:20:45.963Z,30.50
2018-11-02T18:23:19.924Z,30.50
2018-11-02T18:25:54.199Z,30.50
2018-11-02T18:28:28.705Z,30.50
2018-11-02T18:31:02.703Z,30.40
2018-11-02T18:33:36.869Z,30.40
2018-11-02T18:36:11.197Z,30.40
2018-11-02T18:38:45.146Z,30.40
2018-11-02T18:41:21.177Z,30.40
2018-11-02T18:43:55.348Z,30.30
2018-11-02T18:46:30.274Z,30.30
2018-11-02T18:49:04.487Z,30.30
2018-11-02T18:51:38.512Z,30.30
2018-11-02T18:54:12.625Z,30.30
2018-11-02T18:56:46.573Z,30.20
2018-11-02T18:59:21.443Z,30.20
2018-11-02T19:01:56.042Z,30.20
2018-11-02T19:04:30.654Z,30.20
2018-11-02T19:07:05.731Z,30.10
2018-11-02T19:09:40.302Z,30.10
2018-11-02T19:12:15.450Z,30.10
2018-11-02T19:14:50.398Z,30.10
2018-11-02T19:17:25.705Z,30.00
2018-11-02T19:20:01.480Z,30.00
2018-11-02T19:22:36.194Z,30.00
2018-11-02T19:25:11.157Z,29.90
2018-11-02T19:27:45.659Z,29.90
2018-11-02T19:30:19.938Z,29.80
2018-11-02T19:32:55.123Z,29.80
2018-11-02T19:35:29.546Z,29.70
2018-11-02T19:38:04.649Z,29.70
2018-11-02T19:40:38.894Z,29.70
2018-11-02T19:43:12.944Z,29.70
